createdAt,value
2022-07-29T00:04:21.448Z,0.13
2022-07-29T00:34:38.728Z,0.13
2022-07-29T01:04:54.688Z,0.13
2022-07-29T01:35:13.056Z,0.11
2022-07-29T02:05:28.129Z,0.13
2022-07-29T02:35:45.433Z,0.13
2022-07-29T03:06:01.282Z,0.14
2022-07-29T03:36:18.031Z,0.15
2022-07-29T04:06:36.437Z,0.15
2022-07-29T04:36:53.627Z,0.15
2022-07-29T05:07:12.258Z,0.15
2022-07-29T05:37:32.798Z,0.15
2022-07-29T06:07:58.884Z,0.15
2022-07-29T06:38:34.058Z,0.16
2022-07-29T07:08:51.079Z,0.17
2022-07-29T07:39:16.526Z,0.17
2022-07-29T08:09:41.938Z,0.17
2022-07-29T08:40:04.161Z,0.17
2022-07-29T09:10:25.773Z,0.17
2022-07-29T09:40:50.760Z,0.18
2022-07-29T10:11:01.682Z,0.18
2022-07-29T10:41:27.111Z,0.18
2022-07-29T11:11:55.780Z,0.19
2022-07-29T11:42:28.250Z,0.19
2022-07-29T12:12:46.890Z,0.19
2022-07-29T12:43:04.193Z,0.19
2022-07-29T13:13:15.877Z,0.19
2022-07-29T13:43:24.644Z,0.19
2022-07-29T14:13:35.467Z,0.19
2022-07-29T14:43:49.195Z,0.19
2022-07-29T15:14:05.590Z,0.19
2022-07-29T15:44:16.778Z,0.19
2022-07-29T16:14:35.319Z,0.19
2022-07-29T16:44:57.404Z,0.19
2022-07-29T17:15:12.071Z,0.19
2022-07-29T17:45:26.250Z,0.2
2022-07-29T18:16:00.216Z,0.2
2022-07-29T18:46:17.770Z,0.2
2022-07-29T19:16:35.470Z,0.21
2022-07-29T19:46:53.077Z,0.21
2022-07-29T20:17:10.030Z,0.21
2022-07-29T20:47:27.620Z,0.22
2022-07-29T21:17:45.189Z,0.22
2022-07-29T21:48:03.461Z,0.22
2022-07-29T22:18:21.026Z,0.22
2022-07-29T22:48:39.364Z,0.21
2022-07-29T23:18:57.597Z,0.21
2022-07-29T23:49:15.511Z,0.21
